createdAt,value
2017-08-13T00:00:20.031Z,0
2017-08-13T00:01:19.908Z,0
2017-08-13T00:02:19.559Z,0
2017-08-13T00:03:19.710Z,0
2017-08-13T00:04:20.511Z,0
2017-08-13T00:05:20.542Z,0
2017-08-13T00:06:21.044Z,0
2017-08-13T00:07:20.441Z,0
2017-08-13T00:08:21.564Z,0
2017-08-13T00:09:21.262Z,0
2017-08-13T00:10:21.644Z,0
2017-08-13T00:11:21.673Z,0
2017-08-13T00:12:21.377Z,0
2017-08-13T00:13:21.721Z,0
2017-08-13T00:14:21.439Z,0
2017-08-13T00:15:21.787Z,0
2017-08-13T00:16:21.499Z,0
2017-08-13T00:17:21.970Z,0
2017-08-13T00:18:21.706Z,0
2017-08-13T00:19:21.723Z,0
2017-08-13T00:20:22.097Z,0
2017-08-13T00:21:22.134Z,0
2017-08-13T00:22:22.165Z,0
2017-08-13T00:23:22.178Z,0
2017-08-13T00:24:22.199Z,0
2017-08-13T00:25:22.270Z,0
2017-08-13T00:26:22.745Z,0
2017-08-13T00:27:22.784Z,0
2017-08-13T00:28:22.509Z,0
2017-08-13T00:29:22.855Z,0
2017-08-13T00:30:22.560Z,0
2017-08-13T00:31:23.007Z,0
2017-08-13T00:32:23.370Z,0
2017-08-13T00:33:23.402Z,0
2017-08-13T00:34:23.114Z,0
2017-08-13T00:35:23.475Z,0
2017-08-13T00:36:23.182Z,0
2017-08-13T00:37:51.333Z,0
2017-08-13T00:38:26.014Z,0
2017-08-13T00:39:26.067Z,0
2017-08-13T00:40:25.775Z,0
2017-08-13T00:41:25.806Z,0
2017-08-13T00:42:26.294Z,0
2017-08-13T00:43:26.447Z,0
2017-08-13T00:44:26.464Z,0
2017-08-13T00:45:26.836Z,0
2017-08-13T00:46:26.866Z,0
2017-08-13T00:47:26.896Z,0
2017-08-13T00:48:26.601Z,0
2017-08-13T00:49:26.963Z,0
2017-08-13T00:50:27.008Z,0
2017-08-13T00:51:27.034Z,0
2017-08-13T00:52:27.065Z,0
2017-08-13T00:53:27.101Z,0
2017-08-13T00:54:27.108Z,0
2017-08-13T00:55:26.845Z,0
2017-08-13T00:56:27.208Z,0
2017-08-13T00:57:26.922Z,0
2017-08-13T00:58:26.950Z,0
2017-08-13T00:59:27.300Z,0
2017-08-13T01:00:27.332Z,0
2017-08-13T01:01:27.375Z,0
2017-08-13T01:02:27.093Z,0
2017-08-13T01:03:27.420Z,0
2017-08-13T01:04:27.462Z,0
2017-08-13T01:05:27.495Z,0
2017-08-13T01:06:27.535Z,0
2017-08-13T01:07:29.358Z,0
2017-08-13T01:08:27.595Z,0
2017-08-13T01:09:27.641Z,0
2017-08-13T01:10:27.337Z,0
2017-08-13T01:11:27.691Z,0
2017-08-13T01:12:27.401Z,0
2017-08-13T01:13:27.447Z,0
2017-08-13T01:14:28.231Z,0
2017-08-13T01:15:28.258Z,0
2017-08-13T01:16:28.300Z,0
2017-08-13T01:17:28.007Z,0
2017-08-13T01:18:28.794Z,0
2017-08-13T01:19:28.817Z,0
2017-08-13T01:20:28.856Z,0
2017-08-13T01:21:28.579Z,0
2017-08-13T01:22:28.603Z,0
2017-08-13T01:23:28.649Z,0
2017-08-13T01:24:29.116Z,0
2017-08-13T01:25:28.830Z,0
2017-08-13T01:26:29.940Z,0
2017-08-13T01:27:29.328Z,0
2017-08-13T01:28:30.445Z,0
2017-08-13T01:29:30.477Z,0
2017-08-13T01:30:30.505Z,0
2017-08-13T01:31:30.534Z,0
2017-08-13T01:32:30.594Z,0
2017-08-13T01:33:30.609Z,0
2017-08-13T01:34:30.650Z,0
2017-08-13T01:35:30.676Z,0
2017-08-13T01:36:30.702Z,0
2017-08-13T01:37:30.755Z,0
2017-08-13T01:38:30.777Z,0
2017-08-13T01:39:30.804Z,0
2017-08-13T01:40:30.838Z,0
2017-08-13T01:41:30.557Z,0
2017-08-13T01:42:30.909Z,0
2017-08-13T01:43:30.948Z,0
2017-08-13T01:44:30.974Z,0
2017-08-13T01:45:30.681Z,0
2017-08-13T01:46:31.489Z,0
2017-08-13T01:47:31.193Z,0
2017-08-13T01:48:32.005Z,0
2017-08-13T01:49:32.014Z,0
2017-08-13T01:50:31.829Z,0
2017-08-13T01:51:32.083Z,0
2017-08-13T01:52:31.785Z,0
2017-08-13T01:53:32.276Z,0
2017-08-13T01:54:32.295Z,0
2017-08-13T01:55:32.364Z,0
2017-08-13T01:56:32.378Z,0
2017-08-13T01:57:32.406Z,0
2017-08-13T01:58:32.440Z,0
2017-08-13T01:59:32.480Z,0
2017-08-13T02:00:32.614Z,0
2017-08-13T02:01:32.791Z,0
2017-08-13T02:02:32.202Z,0
2017-08-13T02:03:32.381Z,0
2017-08-13T02:04:32.384Z,0
2017-08-13T02:05:32.589Z,0
2017-08-13T02:06:32.813Z,0
2017-08-13T02:07:32.530Z,0
2017-08-13T02:08:32.542Z,0
2017-08-13T02:09:32.575Z,0
2017-08-13T02:10:32.921Z,0
2017-08-13T02:11:32.973Z,0
2017-08-13T02:12:32.997Z,0
2017-08-13T02:13:33.025Z,0
2017-08-13T02:14:33.046Z,0
2017-08-13T02:15:32.783Z,0
2017-08-13T02:16:32.794Z,0
2017-08-13T02:17:33.587Z,0
2017-08-13T02:18:33.620Z,0
2017-08-13T02:19:33.640Z,0
2017-08-13T02:20:33.679Z,0
2017-08-13T02:21:33.393Z,0
2017-08-13T02:22:33.752Z,0
2017-08-13T02:23:33.798Z,0
2017-08-13T02:24:33.475Z,0
2017-08-13T02:25:33.837Z,0
2017-08-13T02:26:33.569Z,0
2017-08-13T02:27:33.902Z,0
2017-08-13T02:28:33.645Z,0
2017-08-13T02:29:33.976Z,0
2017-08-13T02:30:33.692Z,0
2017-08-13T02:31:34.023Z,0
2017-08-13T02:32:34.081Z,0
2017-08-13T02:33:34.103Z,0
2017-08-13T02:34:34.138Z,0
2017-08-13T02:35:34.179Z,0
2017-08-13T02:36:33.908Z,0
2017-08-13T02:37:33.908Z,0
2017-08-13T02:38:34.256Z,0
2017-08-13T02:39:34.298Z,0
2017-08-13T02:40:34.335Z,0
2017-08-13T02:41:34.353Z,0
2017-08-13T02:42:34.402Z,0
2017-08-13T02:43:34.429Z,0
2017-08-13T02:44:34.461Z,0
2017-08-13T02:45:34.504Z,0
2017-08-13T02:46:34.213Z,0
2017-08-13T02:47:35.027Z,0
2017-08-13T02:48:35.047Z,0
2017-08-13T02:49:35.073Z,0
2017-08-13T02:50:35.106Z,0
2017-08-13T02:51:35.280Z,0
2017-08-13T02:52:35.775Z,0
2017-08-13T02:53:36.578Z,0
2017-08-13T02:54:36.306Z,0
2017-08-13T02:55:36.341Z,0
2017-08-13T02:56:36.680Z,0
2017-08-13T02:57:36.707Z,0
2017-08-13T02:58:36.749Z,0
2017-08-13T02:59:36.781Z,0
2017-08-13T03:00:36.809Z,0
2017-08-13T03:01:36.620Z,0
2017-08-13T03:02:36.882Z,0
2017-08-13T03:03:36.593Z,0
2017-08-13T03:04:36.923Z,0
2017-08-13T03:05:36.663Z,0
2017-08-13T03:06:37.013Z,0
2017-08-13T03:07:37.036Z,0
2017-08-13T03:08:36.750Z,0
2017-08-13T03:09:37.540Z,0
2017-08-13T03:10:37.243Z,0
2017-08-13T03:11:37.591Z,0
2017-08-13T03:12:37.320Z,0
2017-08-13T03:13:37.650Z,4
2017-08-13T03:14:37.703Z,4
2017-08-13T03:15:37.714Z,4
2017-08-13T03:16:36.810Z,4
2017-08-13T03:17:37.931Z,0
2017-08-13T03:18:37.945Z,4
2017-08-13T03:19:37.654Z,4
2017-08-13T03:20:38.135Z,8
2017-08-13T03:21:38.931Z,4
2017-08-13T03:22:38.638Z,4
2017-08-13T03:23:39.010Z,8
2017-08-13T03:24:39.059Z,12
2017-08-13T03:25:39.072Z,8
2017-08-13T03:26:39.092Z,12
2017-08-13T03:27:38.810Z,16
2017-08-13T03:28:38.535Z,16
2017-08-13T03:29:39.207Z,16
2017-08-13T03:30:38.916Z,20
2017-08-13T03:31:39.262Z,20
2017-08-13T03:32:39.294Z,24
2017-08-13T03:33:39.003Z,32
2017-08-13T03:34:39.838Z,40
2017-08-13T03:35:39.534Z,40
2017-08-13T03:36:39.572Z,48
2017-08-13T03:37:39.914Z,56
2017-08-13T03:38:39.940Z,64
2017-08-13T03:39:40.003Z,72
2017-08-13T03:40:40.023Z,76
2017-08-13T03:41:40.037Z,84
2017-08-13T03:42:40.081Z,96
2017-08-13T03:43:40.109Z,108
2017-08-13T03:44:40.134Z,116
2017-08-13T03:45:40.178Z,128
2017-08-13T03:46:40.210Z,136
2017-08-13T03:47:40.236Z,144
2017-08-13T03:48:40.272Z,164
2017-08-13T03:49:40.307Z,176
2017-08-13T03:50:40.011Z,192
2017-08-13T03:51:39.725Z,204
2017-08-13T03:52:40.821Z,204
2017-08-13T03:53:40.542Z,204
2017-08-13T03:54:40.252Z,208
2017-08-13T03:55:41.057Z,220
2017-08-13T03:56:41.094Z,240
2017-08-13T03:57:41.116Z,256
2017-08-13T03:58:41.143Z,280
2017-08-13T03:59:41.176Z,304
2017-08-13T04:00:40.896Z,332
2017-08-13T04:01:41.523Z,348
2017-08-13T04:02:40.960Z,360
2017-08-13T04:03:41.005Z,376
2017-08-13T04:04:41.352Z,404
2017-08-13T04:05:41.068Z,424
2017-08-13T04:06:41.412Z,392
2017-08-13T04:07:41.445Z,352
2017-08-13T04:08:41.160Z,348
2017-08-13T04:09:41.509Z,368
2017-08-13T04:10:41.532Z,368
2017-08-13T04:11:41.593Z,408
2017-08-13T04:12:41.612Z,472
2017-08-13T04:13:41.642Z,552
2017-08-13T04:14:41.673Z,640
2017-08-13T04:15:41.706Z,696
2017-08-13T04:16:41.737Z,736
2017-08-13T04:17:41.760Z,760
2017-08-13T04:18:41.812Z,856
2017-08-13T04:19:41.837Z,944
2017-08-13T04:20:41.875Z,972
2017-08-13T04:21:41.572Z,1012
2017-08-13T04:22:41.951Z,1104
2017-08-13T04:23:41.665Z,1148
2017-08-13T04:24:42.010Z,1088
2017-08-13T04:25:41.407Z,1008
2017-08-13T04:26:42.530Z,972
2017-08-13T04:27:42.548Z,936
2017-08-13T04:28:42.574Z,964
2017-08-13T04:29:42.311Z,964
2017-08-13T04:30:42.650Z,944
2017-08-13T04:31:43.131Z,908
2017-08-13T04:32:43.161Z,924
2017-08-13T04:33:42.867Z,968
2017-08-13T04:34:43.224Z,1008
2017-08-13T04:35:43.253Z,1060
2017-08-13T04:36:42.966Z,1024
2017-08-13T04:37:43.338Z,1060
2017-08-13T04:38:43.351Z,1116
2017-08-13T04:39:43.373Z,1148
2017-08-13T04:40:43.421Z,1036
2017-08-13T04:41:43.450Z,992
2017-08-13T04:42:43.491Z,1040
2017-08-13T04:43:43.523Z,1088
2017-08-13T04:44:43.553Z,1240
2017-08-13T04:45:43.280Z,1404
2017-08-13T04:46:43.621Z,1420
2017-08-13T04:47:43.332Z,1552
2017-08-13T04:48:44.133Z,1552
2017-08-13T04:49:44.166Z,1520
2017-08-13T04:50:44.212Z,1496
2017-08-13T04:51:44.235Z,1504
2017-08-13T04:52:44.265Z,1428
2017-08-13T04:53:44.313Z,1420
2017-08-13T04:54:44.335Z,1520
2017-08-13T04:55:44.056Z,1796
2017-08-13T04:56:44.413Z,1936
2017-08-13T04:57:44.141Z,1908
2017-08-13T04:58:44.160Z,1716
2017-08-13T04:59:44.219Z,1576
2017-08-13T05:00:44.709Z,1432
2017-08-13T05:01:44.734Z,1348
2017-08-13T05:02:44.781Z,1460
2017-08-13T05:03:44.813Z,1572
2017-08-13T05:04:44.520Z,1728
2017-08-13T05:05:44.871Z,1824
2017-08-13T05:06:44.910Z,1808
2017-08-13T05:07:44.612Z,1656
2017-08-13T05:08:44.977Z,1368
2017-08-13T05:09:45.024Z,1708
2017-08-13T05:10:45.036Z,1780
2017-08-13T05:11:45.090Z,1388
2017-08-13T05:12:44.801Z,1116
2017-08-13T05:13:45.133Z,1052
2017-08-13T05:14:45.174Z,884
2017-08-13T05:15:44.888Z,1552
2017-08-13T05:16:45.669Z,1920
2017-08-13T05:17:45.681Z,2156
2017-08-13T05:18:45.728Z,1616
2017-08-13T05:19:45.758Z,1092
2017-08-13T05:20:45.471Z,740
2017-08-13T05:21:45.524Z,1028
2017-08-13T05:22:45.536Z,1720
2017-08-13T05:23:45.895Z,1912
2017-08-13T05:24:45.633Z,2236
2017-08-13T05:25:45.635Z,2224
2017-08-13T05:26:46.013Z,1988
2017-08-13T05:27:45.734Z,1572
2017-08-13T05:28:45.739Z,1600
2017-08-13T05:29:46.108Z,1780
2017-08-13T05:30:46.145Z,1732
2017-08-13T05:31:46.162Z,1580
2017-08-13T05:32:46.444Z,1240
2017-08-13T05:33:46.230Z,1004
2017-08-13T05:34:45.964Z,868
2017-08-13T05:35:45.969Z,1140
2017-08-13T05:36:46.040Z,1504
2017-08-13T05:37:46.844Z,1568
2017-08-13T05:38:46.876Z,1488
2017-08-13T05:39:46.913Z,1716
2017-08-13T05:40:46.940Z,2068
2017-08-13T05:41:46.642Z,2200
2017-08-13T05:42:47.426Z,2004
2017-08-13T05:43:47.143Z,1744
2017-08-13T05:44:47.162Z,1196
2017-08-13T05:45:47.211Z,860
2017-08-13T05:46:47.557Z,720
2017-08-13T05:47:47.585Z,900
2017-08-13T05:48:47.626Z,1108
2017-08-13T05:49:47.661Z,1844
2017-08-13T05:50:47.367Z,2376
2017-08-13T05:51:47.735Z,2508
2017-08-13T05:52:47.761Z,2508
2017-08-13T05:53:47.799Z,3044
2017-08-13T05:54:47.829Z,4012
2017-08-13T05:55:47.858Z,3956
2017-08-13T05:56:47.588Z,4924
2017-08-13T05:57:47.623Z,6480
2017-08-13T05:58:47.970Z,7156
2017-08-13T05:59:47.678Z,6788
2017-08-13T06:00:48.041Z,5812
2017-08-13T06:01:48.084Z,5544
2017-08-13T06:02:48.106Z,5164
2017-08-13T06:03:48.132Z,5172
2017-08-13T06:04:48.169Z,5784
2017-08-13T06:05:47.882Z,5756
2017-08-13T06:06:47.935Z,6368
2017-08-13T06:07:48.290Z,7284
2017-08-13T06:08:48.319Z,7464
2017-08-13T06:09:48.353Z,7312
2017-08-13T06:10:48.068Z,7184
2017-08-13T06:11:48.416Z,6620
2017-08-13T06:12:48.465Z,6672
2017-08-13T06:13:48.485Z,6740
2017-08-13T06:14:48.212Z,6856
2017-08-13T06:15:48.566Z,7828
2017-08-13T06:16:48.626Z,8188
2017-08-13T06:17:48.635Z,8216
2017-08-13T06:18:48.671Z,8580
2017-08-13T06:19:48.395Z,9016
2017-08-13T06:20:48.739Z,8940
2017-08-13T06:21:48.838Z,8856
2017-08-13T06:22:48.805Z,8396
2017-08-13T06:23:48.839Z,8460
2017-08-13T06:24:48.902Z,9428
2017-08-13T06:25:48.918Z,9740
2017-08-13T06:26:48.951Z,9168
2017-08-13T06:27:48.676Z,11216
2017-08-13T06:28:49.043Z,11784
2017-08-13T06:29:48.754Z,11788
2017-08-13T06:30:48.785Z,9352
2017-08-13T06:31:48.799Z,8224
2017-08-13T06:32:49.179Z,7956
2017-08-13T06:33:49.238Z,7616
2017-08-13T06:34:49.240Z,8144
2017-08-13T06:35:49.283Z,7792
2017-08-13T06:36:49.020Z,8268
2017-08-13T06:37:49.381Z,8480
2017-08-13T06:38:49.397Z,8456
2017-08-13T06:39:49.104Z,8516
2017-08-13T06:40:49.481Z,8824
2017-08-13T06:41:49.176Z,8860
2017-08-13T06:42:49.242Z,10092
2017-08-13T06:43:49.266Z,10444
2017-08-13T06:44:49.309Z,10376
2017-08-13T06:45:49.654Z,11948
2017-08-13T06:46:49.071Z,11524
2017-08-13T06:47:49.735Z,9444
2017-08-13T06:48:49.781Z,10144
2017-08-13T06:49:49.800Z,7936
2017-08-13T06:50:49.847Z,7056
2017-08-13T06:51:49.881Z,9444
2017-08-13T06:52:49.587Z,10180
2017-08-13T06:53:50.392Z,11604
2017-08-13T06:54:50.453Z,11972
2017-08-13T06:55:50.469Z,8256
2017-08-13T06:56:50.507Z,8576
2017-08-13T06:57:50.239Z,12972
2017-08-13T06:58:50.274Z,10628
2017-08-13T06:59:50.630Z,7776
2017-08-13T07:00:50.669Z,6256
2017-08-13T07:01:50.470Z,5644
2017-08-13T07:02:50.426Z,6700
2017-08-13T07:03:51.215Z,13396
2017-08-13T07:04:50.950Z,15488
2017-08-13T07:05:50.975Z,14624
2017-08-13T07:06:51.008Z,9384
2017-08-13T07:07:51.050Z,8428
2017-08-13T07:08:51.409Z,12556
2017-08-13T07:09:51.132Z,8592
2017-08-13T07:10:51.477Z,13516
2017-08-13T07:11:51.534Z,11044
2017-08-13T07:12:51.252Z,8164
2017-08-13T07:13:51.280Z,14592
2017-08-13T07:14:51.642Z,13516
2017-08-13T07:15:52.116Z,12444
2017-08-13T07:16:52.151Z,11644
2017-08-13T07:17:52.203Z,11668
2017-08-13T07:18:52.231Z,11692
2017-08-13T07:19:52.273Z,11600
2017-08-13T07:20:52.320Z,12348
2017-08-13T07:21:52.348Z,13856
2017-08-13T07:22:52.393Z,17664
2017-08-13T07:23:52.434Z,20480
2017-08-13T07:24:52.471Z,19648
2017-08-13T07:25:52.522Z,6632
2017-08-13T07:26:52.241Z,7584
2017-08-13T07:27:53.027Z,9792
2017-08-13T07:28:53.076Z,9552
2017-08-13T07:29:53.120Z,8244
2017-08-13T07:30:52.841Z,7600
2017-08-13T07:31:53.184Z,17984
2017-08-13T07:32:52.911Z,31808
2017-08-13T07:33:53.423Z,10440
2017-08-13T07:34:54.222Z,7496
2017-08-13T07:35:54.250Z,6340
2017-08-13T07:36:54.296Z,6216
2017-08-13T07:37:54.336Z,9380
2017-08-13T07:38:54.375Z,23072
2017-08-13T07:39:54.095Z,25600
2017-08-13T07:40:53.823Z,24928
2017-08-13T07:41:54.638Z,22112
2017-08-13T07:42:55.011Z,20256
2017-08-13T07:43:55.034Z,9284
2017-08-13T07:44:55.047Z,8304
2017-08-13T07:45:55.117Z,16096
2017-08-13T07:46:55.151Z,21888
2017-08-13T07:47:55.200Z,21472
2017-08-13T07:48:55.236Z,19040
2017-08-13T07:49:54.958Z,10456
2017-08-13T07:50:54.995Z,6104
2017-08-13T07:51:55.361Z,29184
2017-08-13T07:52:54.784Z,50848
2017-08-13T07:53:55.922Z,51040
2017-08-13T07:54:55.961Z,7212
2017-08-13T07:55:55.677Z,4440
2017-08-13T07:56:55.400Z,4348
2017-08-13T07:57:56.224Z,5448
2017-08-13T07:58:56.577Z,5524
2017-08-13T07:59:56.309Z,5828
2017-08-13T08:00:56.649Z,24640
2017-08-13T08:01:56.401Z,10524
2017-08-13T08:02:56.742Z,49408
2017-08-13T08:03:56.881Z,37408
2017-08-13T08:04:57.272Z,36544
2017-08-13T08:05:57.305Z,12920
2017-08-13T08:06:57.339Z,5500
2017-08-13T08:07:57.386Z,6160
2017-08-13T08:08:57.112Z,17984
2017-08-13T08:09:57.461Z,28608
2017-08-13T08:10:57.510Z,12984
2017-08-13T08:11:57.557Z,10868
2017-08-13T08:12:57.264Z,7352
2017-08-13T08:13:57.759Z,28192
2017-08-13T08:14:57.771Z,13180
2017-08-13T08:15:57.520Z,7580
2017-08-13T08:16:57.861Z,8624
2017-08-13T08:17:57.597Z,9324
2017-08-13T08:18:58.104Z,7036
2017-08-13T08:19:58.919Z,5552
2017-08-13T08:20:58.973Z,4932
2017-08-13T08:21:59.003Z,5380
2017-08-13T08:22:58.400Z,5788
2017-08-13T08:23:59.198Z,7192
2017-08-13T08:24:59.240Z,7344
2017-08-13T08:25:59.285Z,5576
2017-08-13T08:26:59.311Z,5208
2017-08-13T08:27:59.369Z,5872
2017-08-13T08:28:59.403Z,6680
2017-08-13T08:29:59.446Z,5684
2017-08-13T08:30:59.486Z,4964
2017-08-13T08:31:59.519Z,14848
2017-08-13T08:32:59.579Z,15456
2017-08-13T08:33:59.607Z,14688
2017-08-13T08:34:59.649Z,13776
2017-08-13T08:35:59.689Z,13332
2017-08-13T08:36:59.709Z,13232
2017-08-13T08:37:59.764Z,13280
2017-08-13T08:38:59.482Z,13964
2017-08-13T08:39:59.843Z,15776
2017-08-13T08:40:59.578Z,15584
2017-08-13T08:41:59.919Z,14816
2017-08-13T08:42:59.974Z,16704
2017-08-13T08:43:59.701Z,16928
2017-08-13T08:45:00.054Z,11276
2017-08-13T08:46:00.123Z,15264
2017-08-13T08:47:00.191Z,12224
2017-08-13T08:48:00.243Z,7052
2017-08-13T08:48:59.585Z,16128
2017-08-13T08:50:00.407Z,18016
2017-08-13T08:51:00.890Z,16416
2017-08-13T08:52:00.934Z,17312
2017-08-13T08:53:00.985Z,7216
2017-08-13T08:54:01.089Z,10676
2017-08-13T08:55:01.080Z,12408
2017-08-13T08:56:01.102Z,12668
2017-08-13T08:57:01.177Z,12640
2017-08-13T08:58:01.193Z,12912
2017-08-13T08:59:00.932Z,13068
2017-08-13T09:00:01.959Z,13256
2017-08-13T09:01:02.002Z,13684
2017-08-13T09:02:01.732Z,14080
2017-08-13T09:03:02.569Z,14144
2017-08-13T09:04:02.591Z,14144
2017-08-13T09:05:02.373Z,14688
2017-08-13T09:06:02.403Z,13984
2017-08-13T09:07:02.424Z,13728
2017-08-13T09:08:02.855Z,14304
2017-08-13T09:09:02.521Z,15008
2017-08-13T09:10:03.301Z,15008
2017-08-13T09:11:03.377Z,14912
2017-08-13T09:12:03.410Z,15616
2017-08-13T09:13:03.487Z,15328
2017-08-13T09:14:03.550Z,15008
2017-08-13T09:15:03.551Z,16512
2017-08-13T09:16:03.594Z,17760
2017-08-13T09:17:03.740Z,7920
2017-08-13T09:18:03.751Z,8664
2017-08-13T09:19:03.756Z,16416
2017-08-13T09:20:03.914Z,16000
2017-08-13T09:21:03.824Z,16192
2017-08-13T09:22:03.570Z,15360
2017-08-13T09:23:03.909Z,16800
2017-08-13T09:24:03.965Z,9572
2017-08-13T09:25:04.075Z,16768
2017-08-13T09:26:03.447Z,16768
2017-08-13T09:27:03.732Z,17312
2017-08-13T09:28:04.528Z,17248
2017-08-13T09:29:04.260Z,10700
2017-08-13T09:30:04.625Z,8336
2017-08-13T09:31:04.684Z,6352
2017-08-13T09:32:04.718Z,5464
2017-08-13T09:33:04.785Z,4776
2017-08-13T09:34:04.188Z,5068
2017-08-13T09:35:04.688Z,6152
2017-08-13T09:36:05.049Z,7388
2017-08-13T09:37:05.102Z,19200
2017-08-13T09:38:05.128Z,20320
2017-08-13T09:39:05.192Z,14108
2017-08-13T09:40:05.235Z,14896
2017-08-13T09:41:04.981Z,13132
2017-08-13T09:42:05.342Z,18432
2017-08-13T09:43:05.391Z,17696
2017-08-13T09:44:05.465Z,16320
2017-08-13T09:45:05.622Z,19232
2017-08-13T09:46:05.683Z,34432
2017-08-13T09:47:05.715Z,20608
2017-08-13T09:48:06.135Z,32000
2017-08-13T09:49:06.328Z,35296
2017-08-13T09:50:06.194Z,26336
2017-08-13T09:51:05.899Z,33312
2017-08-13T09:52:06.344Z,28544
2017-08-13T09:53:06.591Z,25056
2017-08-13T09:54:05.694Z,13312
2017-08-13T09:55:06.822Z,11988
2017-08-13T09:56:06.620Z,8200
2017-08-13T09:57:06.603Z,8548
2017-08-13T09:58:06.659Z,8852
2017-08-13T09:59:06.704Z,10156
2017-08-13T10:00:07.655Z,14972
2017-08-13T10:01:06.188Z,23328
2017-08-13T10:02:07.110Z,12800
2017-08-13T10:03:07.343Z,11584
2017-08-13T10:04:07.396Z,40096
2017-08-13T10:05:07.421Z,16768
2017-08-13T10:06:07.142Z,30752
2017-08-13T10:07:07.527Z,11216
2017-08-13T10:08:07.548Z,10720
2017-08-13T10:09:07.600Z,42720
2017-08-13T10:10:07.332Z,48032
2017-08-13T10:11:07.696Z,25792
2017-08-13T10:12:07.729Z,49792
2017-08-13T10:13:07.446Z,21952
2017-08-13T10:14:07.510Z,31488
2017-08-13T10:15:08.334Z,16128
2017-08-13T10:16:07.737Z,17312
2017-08-13T10:17:08.612Z,20480
2017-08-13T10:18:09.179Z,26208
2017-08-13T10:19:09.487Z,30880
2017-08-13T10:20:09.674Z,76800
2017-08-13T10:21:09.575Z,82272
2017-08-13T10:22:10.204Z,82688
2017-08-13T10:23:09.873Z,16864
2017-08-13T10:24:09.918Z,19008
2017-08-13T10:25:10.420Z,17440
2017-08-13T10:26:10.449Z,16160
2017-08-13T10:27:10.810Z,14632
2017-08-13T10:28:10.852Z,14900
2017-08-13T10:29:10.898Z,17856
2017-08-13T10:30:10.928Z,16128
2017-08-13T10:31:11.000Z,15044
2017-08-13T10:32:10.705Z,12632
2017-08-13T10:33:10.734Z,26784
2017-08-13T10:34:10.779Z,15360
2017-08-13T10:35:10.820Z,15936
2017-08-13T10:36:11.200Z,13820
2017-08-13T10:37:10.577Z,23296
2017-08-13T10:38:11.112Z,25696
2017-08-13T10:39:11.530Z,38688
2017-08-13T10:40:10.899Z,31328
2017-08-13T10:41:12.103Z,21984
2017-08-13T10:42:12.197Z,22912
2017-08-13T10:43:11.870Z,21280
2017-08-13T10:44:12.227Z,24960
2017-08-13T10:45:12.329Z,28480
2017-08-13T10:46:12.320Z,13792
2017-08-13T10:47:12.370Z,12996
2017-08-13T10:48:12.104Z,13292
2017-08-13T10:49:12.121Z,12464
2017-08-13T10:50:12.483Z,12444
2017-08-13T10:51:12.526Z,12008
2017-08-13T10:52:12.577Z,11964
2017-08-13T10:53:12.290Z,11012
2017-08-13T10:54:12.442Z,8704
2017-08-13T10:55:12.489Z,9340
2017-08-13T10:56:12.962Z,8836
2017-08-13T10:57:13.001Z,9668
2017-08-13T10:58:13.040Z,9912
2017-08-13T10:59:13.087Z,11736
2017-08-13T11:00:13.475Z,11692
2017-08-13T11:01:13.057Z,10660
2017-08-13T11:02:13.072Z,9676
2017-08-13T11:03:12.737Z,11936
2017-08-13T11:04:13.538Z,12256
2017-08-13T11:05:13.892Z,9296
2017-08-13T11:06:13.931Z,8128
2017-08-13T11:07:13.651Z,8900
2017-08-13T11:08:14.003Z,10056
2017-08-13T11:09:14.493Z,9764
2017-08-13T11:10:14.305Z,10356
2017-08-13T11:11:14.276Z,9724
2017-08-13T11:12:14.291Z,10032
2017-08-13T11:13:14.637Z,9324
2017-08-13T11:14:14.700Z,8372
2017-08-13T11:15:14.672Z,7584
2017-08-13T11:16:14.442Z,7904
2017-08-13T11:17:14.795Z,8840
2017-08-13T11:18:14.850Z,9488
2017-08-13T11:19:14.972Z,9260
2017-08-13T11:20:14.721Z,7216
2017-08-13T11:21:14.966Z,9116
2017-08-13T11:22:15.008Z,10228
2017-08-13T11:23:15.045Z,9444
2017-08-13T11:24:15.096Z,8232
2017-08-13T11:25:14.808Z,7336
2017-08-13T11:26:15.177Z,6492
2017-08-13T11:27:15.210Z,5604
2017-08-13T11:28:15.256Z,7200
2017-08-13T11:29:15.292Z,7748
2017-08-13T11:30:15.320Z,7760
2017-08-13T11:31:15.359Z,8856
2017-08-13T11:32:15.400Z,6712
2017-08-13T11:33:15.453Z,7836
2017-08-13T11:34:15.485Z,8368
2017-08-13T11:35:15.517Z,8880
2017-08-13T11:36:15.574Z,9400
2017-08-13T11:37:15.626Z,8220
2017-08-13T11:38:15.652Z,7608
2017-08-13T11:39:15.690Z,8040
2017-08-13T11:40:15.719Z,9120
2017-08-13T11:41:15.128Z,8928
2017-08-13T11:42:16.270Z,8456
2017-08-13T11:43:16.297Z,8168
2017-08-13T11:44:16.337Z,8496
2017-08-13T11:45:16.039Z,8224
2017-08-13T11:46:16.822Z,8272
2017-08-13T11:47:16.879Z,9000
2017-08-13T11:48:16.898Z,8540
2017-08-13T11:49:16.945Z,6704
2017-08-13T11:50:16.981Z,5416
2017-08-13T11:51:17.022Z,4664
2017-08-13T11:52:16.732Z,4268
2017-08-13T11:53:17.090Z,3628
2017-08-13T11:54:17.131Z,3952
2017-08-13T11:55:17.175Z,4296
2017-08-13T11:56:17.329Z,3652
2017-08-13T11:57:17.379Z,3388
2017-08-13T11:58:17.732Z,3040
2017-08-13T11:59:17.447Z,2596
2017-08-13T12:00:17.818Z,2288
2017-08-13T12:01:17.851Z,2064
2017-08-13T12:02:17.995Z,2048
2017-08-13T12:03:17.909Z,2220
2017-08-13T12:04:17.949Z,2344
2017-08-13T12:05:18.000Z,2324
2017-08-13T12:06:18.183Z,2128
2017-08-13T12:07:18.079Z,1872
2017-08-13T12:08:18.098Z,1820
2017-08-13T12:09:18.142Z,2092
2017-08-13T12:10:18.237Z,2372
2017-08-13T12:11:17.692Z,2344
2017-08-13T12:12:18.191Z,2208
2017-08-13T12:13:18.544Z,2292
2017-08-13T12:14:18.291Z,2352
2017-08-13T12:15:18.618Z,2288
2017-08-13T12:16:18.323Z,2232
2017-08-13T12:17:18.726Z,2352
2017-08-13T12:18:18.429Z,2536
2017-08-13T12:19:18.465Z,2680
2017-08-13T12:20:18.839Z,2944
2017-08-13T12:21:19.181Z,3660
2017-08-13T12:22:18.580Z,4496
2017-08-13T12:23:19.411Z,5176
2017-08-13T12:24:19.452Z,5352
2017-08-13T12:25:19.481Z,5684
2017-08-13T12:26:19.822Z,6540
2017-08-13T12:27:19.592Z,7092
2017-08-13T12:28:19.272Z,7176
2017-08-13T12:29:20.072Z,7328
2017-08-13T12:30:20.118Z,7340
2017-08-13T12:31:20.148Z,7396
2017-08-13T12:32:19.993Z,6748
2017-08-13T12:33:20.034Z,6160
2017-08-13T12:34:20.813Z,6304
2017-08-13T12:35:20.878Z,6644
2017-08-13T12:36:20.609Z,7092
2017-08-13T12:37:20.630Z,6788
2017-08-13T12:38:20.972Z,6440
2017-08-13T12:39:20.766Z,6232
2017-08-13T12:40:20.774Z,5908
2017-08-13T12:41:20.784Z,6244
2017-08-13T12:42:21.321Z,6488
2017-08-13T12:43:21.152Z,6932
2017-08-13T12:44:21.238Z,7208
2017-08-13T12:45:21.266Z,7596
2017-08-13T12:46:21.269Z,7816
2017-08-13T12:47:21.328Z,8120
2017-08-13T12:48:21.347Z,7004
2017-08-13T12:49:21.390Z,7240
2017-08-13T12:50:21.115Z,8056
2017-08-13T12:51:21.489Z,8704
2017-08-13T12:52:21.498Z,8676
2017-08-13T12:53:21.539Z,8464
2017-08-13T12:54:21.580Z,8592
2017-08-13T12:55:21.619Z,8396
2017-08-13T12:56:21.345Z,8368
2017-08-13T12:57:21.700Z,8508
2017-08-13T12:58:21.744Z,8104
2017-08-13T12:59:21.129Z,8152
2017-08-13T13:00:22.279Z,8680
2017-08-13T13:01:22.322Z,8624
2017-08-13T13:02:22.034Z,8240
2017-08-13T13:03:22.497Z,7744
2017-08-13T13:04:22.548Z,7420
2017-08-13T13:05:22.568Z,6864
2017-08-13T13:06:22.942Z,6860
2017-08-13T13:07:23.432Z,6840
2017-08-13T13:08:23.148Z,7476
2017-08-13T13:09:23.617Z,8088
2017-08-13T13:10:24.097Z,8392
2017-08-13T13:11:24.113Z,8760
2017-08-13T13:12:24.493Z,8572
2017-08-13T13:13:24.196Z,8212
2017-08-13T13:14:25.023Z,8168
2017-08-13T13:15:25.051Z,7744
2017-08-13T13:16:25.086Z,7940
2017-08-13T13:17:24.896Z,8328
2017-08-13T13:18:25.169Z,8476
2017-08-13T13:19:25.206Z,8484
2017-08-13T13:20:25.227Z,8604
2017-08-13T13:21:24.969Z,8624
2017-08-13T13:22:25.135Z,8468
2017-08-13T13:23:25.344Z,8368
2017-08-13T13:24:25.071Z,8256
2017-08-13T13:25:25.119Z,7928
2017-08-13T13:26:24.822Z,7636
2017-08-13T13:27:25.732Z,8040
2017-08-13T13:28:25.675Z,8128
2017-08-13T13:29:25.718Z,8092
2017-08-13T13:30:25.756Z,7908
2017-08-13T13:31:25.795Z,7496
2017-08-13T13:32:25.622Z,7216
2017-08-13T13:33:25.873Z,7316
2017-08-13T13:34:25.912Z,7504
2017-08-13T13:35:25.960Z,7568
2017-08-13T13:36:25.988Z,7408